Time;durP1;ratioP1;P1;durP2;ratioP2;P2;SDS_P1;SDS_P2;PMS_P1;PMS_P2;Temp;Humidity;BMP_temperature;BMP_pressure;BME280_temperature;BME280_humidity;BME280_pressure;Samples;Min_cycle;Max_cycle;Signal;HPM_P1;HPM_P2
2022/02/06 00:00:16;;;;;;;;;;;7.90;99.90;;;;;;5105650;28;20333;-72
2022/02/06 00:02:45;;;;;;;;;;;7.90;99.90;;;;;;5118376;28;19919;-71
2022/02/06 00:05:12;;;;;;;;;;;7.90;99.90;;;;;;5109475;28;19919;-72
2022/02/06 00:07:38;;;;;;;;;;;7.90;99.90;;;;;;5084846;27;19924;-73
2022/02/06 00:10:03;;;;;;;;;;;7.90;99.90;;;;;;5115899;27;19924;-71
2022/02/06 00:12:29;;;;;;;;;;;8.00;99.90;;;;;;5102144;28;20295;-72
2022/02/06 00:14:54;;;;;;;;;;;8.00;99.90;;;;;;5093914;28;19924;-71
2022/02/06 00:17:20;;;;;;;;;;;8.00;99.90;;;;;;5085592;28;19923;-72
2022/02/06 00:19:46;;;;;;;;;;;8.00;99.90;;;;;;5112583;28;19965;-71
2022/02/06 00:22:24;;;;;;;;;;;8.00;99.90;;;;;;5103177;28;19916;-71
2022/02/06 00:25:01;;;;;;;;;;;8.00;99.90;;;;;;5104958;28;19916;-72
2022/02/06 00:27:41;;;;;;;;;;;8.00;99.90;;;;;;5102323;28;19947;-71
2022/02/06 00:32:45;;;;;;;;;;;8.00;99.90;;;;;;5102643;28;19922;-71
2022/02/06 00:38:12;;;;;;;;;;;8.00;99.90;;;;;;5099889;28;20334;-72
2022/02/06 00:43:22;;;;;;;;;;;8.00;99.90;;;;;;5117626;28;19911;-72
2022/02/06 00:45:48;;;;;;;;;;;8.00;99.90;;;;;;5104411;28;19920;-71
2022/02/06 00:48:19;;;;;;;;;;;8.10;99.90;;;;;;5108709;28;19912;-71
2022/02/06 00:50:47;;;;;;;;;;;8.00;99.90;;;;;;5082373;28;19916;-71
2022/02/06 00:53:18;;;;;;;;;;;8.00;99.90;;;;;;5105904;28;19916;-71
2022/02/06 00:55:46;;;;;;;;;;;8.00;99.90;;;;;;5097709;28;20299;-71
2022/02/06 00:58:12;;;;;;;;;;;8.00;99.90;;;;;;5113078;28;19912;-71
2022/02/06 01:00:38;;;;;;;;;;;8.10;99.90;;;;;;5104924;28;19920;-71
2022/02/06 01:03:03;;;;;;;;;;;8.10;99.90;;;;;;5106964;28;20014;-71
2022/02/06 01:05:29;;;;;;;;;;;8.10;99.90;;;;;;5089823;27;20222;-71
2022/02/06 01:07:55;;;;;;;;;;;8.10;99.90;;;;;;5118699;27;19966;-71
2022/02/06 01:10:23;;;;;;;;;;;8.10;99.90;;;;;;5103921;28;19920;-71
2022/02/06 01:12:55;;;;;;;;;;;8.10;99.90;;;;;;5105614;28;19916;-71
2022/02/06 01:15:26;;;;;;;;;;;8.00;99.90;;;;;;5086832;28;19961;-71
2022/02/06 01:17:58;;;;;;;;;;;8.10;99.90;;;;;;5115378;28;20011;-71
2022/02/06 01:20:31;;;;;;;;;;;8.10;99.90;;;;;;5114412;28;19922;-70
2022/02/06 01:23:10;;;;;;;;;;;8.10;99.90;;;;;;5116629;28;20315;-70
2022/02/06 01:25:46;;;;;;;;;;;8.10;99.90;;;;;;5109366;28;20271;-71
2022/02/06 01:28:16;;;;;;;;;;;8.10;99.90;;;;;;5115866;28;20225;-71
2022/02/06 01:33:15;;;;;;;;;;;8.00;99.90;;;;;;5114909;28;19919;-72
2022/02/06 01:35:48;;;;;;;;;;;8.10;99.90;;;;;;5102378;28;19922;-71
2022/02/06 01:38:28;;;;;;;;;;;8.10;99.90;;;;;;5113749;28;19919;-71
2022/02/06 01:43:27;;;;;;;;;;;8.10;99.90;;;;;;5096529;28;20330;-71
2022/02/06 02:45:26;;;;;;;;;;;8.20;99.90;;;;;;5100643;28;20009;-71
2022/02/06 02:48:00;;;;;;;;;;;8.20;99.90;;;;;;5081663;28;19912;-71
2022/02/06 02:50:26;;;;;;;;;;;8.10;99.90;;;;;;5112134;28;19915;-71
2022/02/06 03:03:05;;;;;;;;;;;8.10;99.90;;;;;;5103479;28;19999;-71
2022/02/06 03:05:30;;;;;;;;;;;8.10;99.90;;;;;;5097377;28;19977;-71
2022/02/06 03:07:56;;;;;;;;;;;8.10;99.90;;;;;;5091865;28;20307;-73
2022/02/06 03:10:21;;;;;;;;;;;8.20;99.90;;;;;;5085595;28;20019;-72
2022/02/06 03:12:51;;;;;;;;;;;8.20;99.90;;;;;;5106447;28;19975;-71
2022/02/06 03:15:34;;;;;;;;;;;8.20;99.90;;;;;;5090381;28;20003;-72
2022/02/06 03:18:02;;;;;;;;;;;8.20;99.90;;;;;;5095556;28;20007;-71
2022/02/06 03:20:29;;;;;;;;;;;8.20;99.90;;;;;;5110530;28;20285;-71
2022/02/06 03:22:59;;;;;;;;;;;8.20;99.90;;;;;;5113945;28;19961;-72
2022/02/06 03:25:25;;;;;;;;;;;8.20;99.90;;;;;;5099452;28;19916;-71
2022/02/06 03:27:52;;;;;;;;;;;8.20;99.90;;;;;;5112455;28;20129;-71
2022/02/06 03:30:18;;;;;;;;;;;8.20;99.90;;;;;;5105526;28;19920;-71
2022/02/06 03:32:44;;;;;;;;;;;8.20;99.90;;;;;;5096964;28;19963;-71
2022/02/06 03:35:10;;;;;;;;;;;8.20;99.90;;;;;;5083598;28;19954;-71
2022/02/06 03:37:35;;;;;;;;;;;8.20;99.90;;;;;;5103647;28;19955;-71
2022/02/06 03:40:05;;;;;;;;;;;8.10;99.90;;;;;;5083541;28;19918;-71
2022/02/06 03:42:41;;;;;;;;;;;8.10;99.90;;;;;;5114693;28;19912;-71
2022/02/06 03:45:09;;;;;;;;;;;8.20;99.90;;;;;;5076899;28;19919;-71
2022/02/06 03:47:49;;;;;;;;;;;8.20;99.90;;;;;;5084406;28;20224;-71
2022/02/06 03:50:16;;;;;;;;;;;8.30;99.90;;;;;;5080679;28;19919;-71
2022/02/06 03:52:48;;;;;;;;;;;8.30;99.90;;;;;;5100236;28;20014;-72
2022/02/06 03:55:21;;;;;;;;;;;8.30;99.90;;;;;;5114674;28;20674;-71
2022/02/06 03:57:47;;;;;;;;;;;8.30;99.90;;;;;;5114612;28;19977;-71
2022/02/06 04:00:14;;;;;;;;;;;8.30;99.90;;;;;;5080796;28;19913;-71
2022/02/06 04:02:39;;;;;;;;;;;8.30;99.90;;;;;;5080428;28;20012;-71
2022/02/06 04:05:05;;;;;;;;;;;8.30;99.90;;;;;;5115219;28;19977;-72
2022/02/06 04:07:30;;;;;;;;;;;8.30;99.90;;;;;;5106391;27;19920;-71
2022/02/06 04:09:57;;;;;;;;;;;8.30;99.90;;;;;;5105169;28;19926;-71
2022/02/06 04:12:24;;;;;;;;;;;8.30;99.90;;;;;;5087056;28;20320;-71
2022/02/06 04:15:04;;;;;;;;;;;8.30;99.90;;;;;;5104540;28;20275;-71
2022/02/06 04:17:36;;;;;;;;;;;8.30;99.90;;;;;;5118001;28;19938;-71
2022/02/06 04:20:02;;;;;;;;;;;8.30;99.90;;;;;;5109221;28;19913;-71
2022/02/06 04:22:28;;;;;;;;;;;8.30;99.90;;;;;;5108047;28;20383;-71
2022/02/06 04:24:53;;;;;;;;;;;8.30;99.90;;;;;;5107051;28;19922;-72
2022/02/06 04:27:19;;;;;;;;;;;8.30;99.90;;;;;;5099493;28;19918;-71
2022/02/06 04:29:46;;;;;;;;;;;8.30;99.90;;;;;;5092851;28;19950;-71
2022/02/06 04:32:12;;;;;;;;;;;8.40;99.90;;;;;;5109542;28;19920;-72
2022/02/06 04:34:38;;;;;;;;;;;8.40;99.90;;;;;;5117491;28;20002;-72
2022/02/06 05:11:35;;;;;;;;;;;8.50;99.90;;;;;;5108705;28;19972;-71
2022/02/06 05:32:19;;;;;;;;;;;8.50;99.90;;;;;;5107269;28;19952;-71
2022/02/06 05:34:44;;;;;;;;;;;8.50;99.90;;;;;;5109189;28;20291;-72
2022/02/06 05:37:10;;;;;;;;;;;8.50;99.90;;;;;;5086335;28;19920;-72
2022/02/06 05:39:36;;;;;;;;;;;8.50;99.90;;;;;;5113218;28;19927;-72
2022/02/06 05:42:01;;;;;;;;;;;8.50;99.90;;;;;;5110427;28;19912;-72
2022/02/06 05:44:27;;;;;;;;;;;8.50;99.90;;;;;;5107734;28;19960;-72
2022/02/06 05:46:52;;;;;;;;;;;8.50;99.90;;;;;;5086042;28;19924;-72
2022/02/06 05:49:18;;;;;;;;;;;8.50;99.90;;;;;;5098675;28;20015;-71
2022/02/06 05:51:44;;;;;;;;;;;8.50;99.90;;;;;;5100000;28;19918;-71
2022/02/06 05:54:10;;;;;;;;;;;8.50;99.90;;;;;;5111148;28;19923;-71
2022/02/06 05:56:35;;;;;;;;;;;8.50;99.90;;;;;;5115937;28;19956;-71
2022/02/06 05:59:01;;;;;;;;;;;8.50;99.90;;;;;;5110200;28;19919;-71
2022/02/06 06:01:27;;;;;;;;;;;8.50;99.90;;;;;;5097655;28;19908;-71
2022/02/06 06:03:53;;;;;;;;;;;8.50;99.90;;;;;;5114301;28;20237;-71
2022/02/06 06:06:19;;;;;;;;;;;8.50;99.90;;;;;;5108982;27;19919;-71
2022/02/06 06:08:44;;;;;;;;;;;8.50;99.90;;;;;;5104432;28;19920;-71
2022/02/06 06:11:10;;;;;;;;;;;8.50;99.90;;;;;;5110639;28;20303;-70
2022/02/06 06:13:35;;;;;;;;;;;8.50;99.90;;;;;;5112385;28;20302;-71
2022/02/06 06:16:04;;;;;;;;;;;8.50;99.90;;;;;;5100948;28;20298;-71
2022/02/06 06:18:29;;;;;;;;;;;8.40;99.90;;;;;;5115594;28;19916;-71
2022/02/06 06:20:55;;;;;;;;;;;8.40;99.90;;;;;;5104411;28;19912;-71
2022/02/06 06:23:23;;;;;;;;;;;8.40;99.90;;;;;;5102237;28;20298;-71
2022/02/06 06:25:50;;;;;;;;;;;8.40;99.90;;;;;;5085839;28;19916;-72
2022/02/06 06:28:16;;;;;;;;;;;8.40;99.90;;;;;;5080123;28;20006;-71
2022/02/06 06:30:41;;;;;;;;;;;8.40;99.90;;;;;;5104960;28;20410;-71
2022/02/06 06:33:07;;;;;;;;;;;8.40;99.90;;;;;;5114413;28;19912;-71
2022/02/06 06:35:33;;;;;;;;;;;8.40;99.90;;;;;;5098289;28;19916;-71
2022/02/06 06:38:00;;;;;;;;;;;8.40;99.90;;;;;;5102285;28;19956;-71
2022/02/06 06:40:26;;;;;;;;;;;8.40;99.90;;;;;;5095604;28;19919;-71
2022/02/06 06:42:52;;;;;;;;;;;8.40;99.90;;;;;;5106472;28;19966;-72
2022/02/06 06:45:18;;;;;;;;;;;8.40;99.90;;;;;;5099430;28;19920;-71
2022/02/06 06:47:57;;;;;;;;;;;8.40;99.90;;;;;;5085762;28;19953;-71
2022/02/06 06:50:31;;;;;;;;;;;8.40;99.90;;;;;;5108262;28;20282;-71
2022/02/06 06:52:57;;;;;;;;;;;8.50;99.90;;;;;;5115224;28;20038;-70
2022/02/06 06:55:23;;;;;;;;;;;8.50;99.90;;;;;;5114979;28;20002;-71
2022/02/06 06:57:58;;;;;;;;;;;8.50;99.90;;;;;;5107717;28;19923;-71
2022/02/06 07:00:39;;;;;;;;;;;8.50;99.90;;;;;;5095868;28;20277;-71
2022/02/06 07:03:05;;;;;;;;;;;8.50;99.90;;;;;;5115613;28;19916;-71
2022/02/06 07:05:30;;;;;;;;;;;8.50;99.90;;;;;;5117565;28;19957;-71
2022/02/06 07:07:56;;;;;;;;;;;8.50;99.90;;;;;;5116801;28;19916;-71
2022/02/06 07:10:22;;;;;;;;;;;8.50;99.90;;;;;;5109764;28;19919;-71
2022/02/06 07:12:49;;;;;;;;;;;8.50;99.90;;;;;;5109920;28;19963;-71
2022/02/06 07:15:15;;;;;;;;;;;8.50;99.90;;;;;;5113795;28;19930;-71
2022/02/06 07:17:41;;;;;;;;;;;8.50;99.90;;;;;;5108321;28;20218;-70
2022/02/06 07:20:07;;;;;;;;;;;8.50;99.90;;;;;;5113507;28;19911;-71
2022/02/06 07:22:35;;;;;;;;;;;8.50;99.90;;;;;;5107351;28;20045;-71
2022/02/06 07:25:02;;;;;;;;;;;8.50;99.90;;;;;;5105268;28;20317;-71
2022/02/06 07:27:34;;;;;;;;;;;8.50;99.90;;;;;;5113117;28;19915;-71
2022/02/06 07:30:04;;;;;;;;;;;8.50;99.90;;;;;;5109824;28;19999;-72
2022/02/06 07:32:32;;;;;;;;;;;8.50;99.90;;;;;;5085807;28;20019;-71
2022/02/06 07:34:58;;;;;;;;;;;8.50;99.90;;;;;;5090834;28;19919;-71
2022/02/06 07:37:24;;;;;;;;;;;8.50;99.90;;;;;;5115561;28;20226;-71
2022/02/06 07:39:49;;;;;;;;;;;8.50;99.90;;;;;;5099655;28;20220;-71
2022/02/06 07:42:15;;;;;;;;;;;8.50;99.90;;;;;;5117625;28;19922;-72
2022/02/06 07:44:46;;;;;;;;;;;8.50;99.90;;;;;;5110602;28;19916;-71
2022/02/06 07:47:14;;;;;;;;;;;8.50;99.90;;;;;;5106991;28;19916;-71
2022/02/06 07:49:43;;;;;;;;;;;8.40;99.90;;;;;;5118304;28;19919;-71
2022/02/06 07:52:08;;;;;;;;;;;8.50;99.90;;;;;;5090741;28;19939;-71
2022/02/06 07:54:34;;;;;;;;;;;8.40;99.90;;;;;;5107260;28;20307;-71
2022/02/06 07:57:02;;;;;;;;;;;8.50;99.90;;;;;;5113388;28;20007;-71
2022/02/06 07:59:27;;;;;;;;;;;8.40;99.90;;;;;;5100195;28;20006;-71
2022/02/06 08:01:53;;;;;;;;;;;8.50;99.90;;;;;;5107227;28;20014;-71
2022/02/06 08:04:18;;;;;;;;;;;8.40;99.90;;;;;;5109433;28;20235;-70
2022/02/06 08:06:44;;;;;;;;;;;8.40;99.90;;;;;;5090924;28;19912;-71
2022/02/06 08:09:10;;;;;;;;;;;8.40;99.90;;;;;;5116176;28;19920;-71
2022/02/06 08:11:42;;;;;;;;;;;8.40;99.90;;;;;;5099563;28;20310;-71
2022/02/06 08:14:08;;;;;;;;;;;8.40;99.90;;;;;;5111779;28;19920;-71
2022/02/06 08:16:34;;;;;;;;;;;8.40;99.90;;;;;;5114350;28;19946;-71
2022/02/06 08:19:00;;;;;;;;;;;8.40;99.90;;;;;;5081261;28;20018;-71
2022/02/06 08:21:25;;;;;;;;;;;8.40;99.90;;;;;;5106558;28;19980;-71
2022/02/06 08:23:51;;;;;;;;;;;8.40;99.90;;;;;;5114332;28;19923;-71
2022/02/06 08:26:17;;;;;;;;;;;8.40;99.90;;;;;;5109039;28;19916;-71
2022/02/06 08:28:42;;;;;;;;;;;8.40;99.90;;;;;;5108873;28;19924;-71
2022/02/06 08:31:09;;;;;;;;;;;8.40;99.90;;;;;;5100918;28;19920;-71
2022/02/06 08:33:34;;;;;;;;;;;8.40;99.90;;;;;;5111722;28;19920;-71
2022/02/06 08:36:00;;;;;;;;;;;8.40;99.90;;;;;;5111327;28;19916;-71
2022/02/06 08:38:26;;;;;;;;;;;8.40;99.90;;;;;;5105904;28;19919;-71
2022/02/06 08:40:52;;;;;;;;;;;8.40;99.90;;;;;;5082886;28;20211;-72
2022/02/06 08:43:18;;;;;;;;;;;8.50;99.90;;;;;;5113477;28;19935;-71
2022/02/06 08:45:44;;;;;;;;;;;8.40;99.90;;;;;;5113959;28;20372;-72
2022/02/06 08:48:09;;;;;;;;;;;8.50;99.90;;;;;;5114139;28;19911;-71
2022/02/06 08:50:35;;;;;;;;;;;8.40;99.90;;;;;;5115244;28;19916;-71
2022/02/06 08:53:00;;;;;;;;;;;8.50;99.90;;;;;;5114377;28;19912;-71
2022/02/06 08:55:29;;;;;;;;;;;8.50;99.90;;;;;;5114702;28;19962;-71
2022/02/06 08:57:56;;;;;;;;;;;8.50;99.90;;;;;;5113359;28;20000;-71
2022/02/06 09:00:22;;;;;;;;;;;8.40;99.90;;;;;;5114449;28;19912;-70
2022/02/06 09:02:48;;;;;;;;;;;8.50;99.90;;;;;;5112171;28;20372;-71
2022/02/06 09:05:14;;;;;;;;;;;8.40;99.90;;;;;;5114161;28;19959;-71
2022/02/06 09:07:41;;;;;;;;;;;8.40;99.90;;;;;;5114343;28;19916;-71
2022/02/06 09:10:07;;;;;;;;;;;8.50;99.90;;;;;;5113851;28;19973;-71
2022/02/06 09:12:35;;;;;;;;;;;8.50;99.90;;;;;;5114002;28;19916;-71
2022/02/06 09:15:01;;;;;;;;;;;8.50;99.90;;;;;;5095902;28;21688;-71
2022/02/06 09:17:26;;;;;;;;;;;8.50;99.90;;;;;;5115083;28;19943;-71
2022/02/06 09:19:53;;;;;;;;;;;8.50;99.90;;;;;;5114288;28;20241;-71
2022/02/06 09:22:18;;;;;;;;;;;8.50;99.90;;;;;;5114173;28;19941;-71
2022/02/06 09:24:44;;;;;;;;;;;8.50;99.90;;;;;;5114151;28;19920;-72
2022/02/06 09:27:10;;;;;;;;;;;8.50;99.90;;;;;;5114034;28;19986;-72
2022/02/06 09:29:37;;;;;;;;;;;8.50;99.90;;;;;;5114728;28;19928;-71
2022/02/06 09:37:02;;;;;;;;;;;8.50;99.90;;;;;;5114578;28;19912;-71
2022/02/06 09:39:32;;;;;;;;;;;8.50;99.90;;;;;;5115277;28;20022;-70
2022/02/06 09:41:58;;;;;;;;;;;8.50;99.90;;;;;;5102128;28;19912;-71
2022/02/06 09:44:26;;;;;;;;;;;8.50;99.90;;;;;;5109606;28;19923;-71
2022/02/06 09:46:52;;;;;;;;;;;8.60;99.90;;;;;;5114183;28;19911;-72
2022/02/06 09:49:21;;;;;;;;;;;8.50;99.90;;;;;;5086061;28;20291;-70
2022/02/06 09:51:46;;;;;;;;;;;8.50;99.90;;;;;;5108678;28;19912;-71
2022/02/06 09:54:13;;;;;;;;;;;8.50;99.90;;;;;;5110340;28;19919;-71
2022/02/06 09:56:43;;;;;;;;;;;8.50;99.90;;;;;;5110549;28;19920;-71
2022/02/06 09:59:17;;;;;;;;;;;8.60;99.90;;;;;;5111196;28;20318;-71
2022/02/06 10:01:43;;;;;;;;;;;8.50;99.90;;;;;;5103632;28;19922;-71
2022/02/06 10:04:11;;;;;;;;;;;8.60;99.90;;;;;;5108254;28;20515;-71
2022/02/06 10:06:43;;;;;;;;;;;8.50;99.90;;;;;;5109734;28;19919;-74
2022/02/06 10:09:13;;;;;;;;;;;8.60;99.90;;;;;;5091299;28;20196;-71
2022/02/06 10:11:44;;;;;;;;;;;8.60;99.90;;;;;;5113080;28;19977;-72
2022/02/06 10:14:10;;;;;;;;;;;8.60;99.90;;;;;;5112146;28;19912;-75
2022/02/06 10:16:35;;;;;;;;;;;8.60;99.90;;;;;;5111607;28;20385;-74
2022/02/06 10:19:01;;;;;;;;;;;8.60;99.90;;;;;;5110464;28;19911;-75
2022/02/06 10:21:30;;;;;;;;;;;8.60;99.90;;;;;;5110262;28;19961;-75
2022/02/06 10:24:05;;;;;;;;;;;8.60;99.90;;;;;;5113200;28;20384;-74
2022/02/06 10:26:41;;;;;;;;;;;8.60;99.90;;;;;;5096069;28;19918;-73
2022/02/06 10:29:23;;;;;;;;;;;8.60;99.90;;;;;;5093727;28;19915;-72
2022/02/06 10:31:54;;;;;;;;;;;8.60;99.90;;;;;;5110247;28;19920;-73
2022/02/06 10:34:21;;;;;;;;;;;8.60;99.90;;;;;;5095125;28;19912;-73
2022/02/06 10:36:47;;;;;;;;;;;8.60;99.90;;;;;;5095572;28;19919;-74
2022/02/06 10:39:15;;;;;;;;;;;8.70;99.90;;;;;;5110037;27;20246;-75
2022/02/06 10:41:45;;;;;;;;;;;8.70;99.90;;;;;;5108679;28;19916;-75
2022/02/06 10:44:10;;;;;;;;;;;8.80;99.90;;;;;;5088161;28;20527;-74
2022/02/06 10:46:54;;;;;;;;;;;8.80;99.90;;;;;;5113054;28;19916;-75
2022/02/06 10:49:20;;;;;;;;;;;8.80;99.90;;;;;;5098390;28;19981;-74
2022/02/06 10:51:51;;;;;;;;;;;8.80;99.90;;;;;;5101753;28;19959;-75
2022/02/06 10:54:25;;;;;;;;;;;8.80;99.90;;;;;;5079308;28;19916;-75
2022/02/06 10:56:57;;;;;;;;;;;8.70;99.90;;;;;;5115263;28;19912;-75
2022/02/06 10:59:27;;;;;;;;;;;7.30;99.90;;;;;;5106386;28;19912;-75
2022/02/06 11:01:54;;;;;;;;;;;6.40;99.90;;;;;;5112493;28;20010;-75
2022/02/06 11:04:31;;;;;;;;;;;6.10;99.90;;;;;;5095394;28;19912;-76
2022/02/06 11:07:12;;;;;;;;;;;6.00;99.90;;;;;;5116090;28;19965;-73
2022/02/06 11:09:38;;;;;;;;;;;6.00;99.90;;;;;;5117995;28;19939;-76
2022/02/06 11:12:09;;;;;;;;;;;5.90;99.90;;;;;;5106556;28;19948;-73
2022/02/06 11:14:38;;;;;;;;;;;5.90;99.90;;;;;;5109079;28;19919;-75
2022/02/06 11:17:24;;;;;;;;;;;5.90;99.90;;;;;;5114056;28;19916;-75
2022/02/06 11:20:10;;;;;;;;;;;5.90;99.90;;;;;;5094415;28;19912;-75
2022/02/06 11:22:36;;;;;;;;;;;5.90;99.90;;;;;;5114942;28;20002;-75
2022/02/06 11:25:05;;;;;;;;;;;5.90;99.90;;;;;;5114954;28;19916;-75
2022/02/06 11:27:33;;;;;;;;;;;5.90;99.90;;;;;;5113620;28;20218;-74
2022/02/06 11:29:59;;;;;;;;;;;5.90;99.90;;;;;;5115447;28;19916;-75
2022/02/06 11:32:28;;;;;;;;;;;5.90;99.90;;;;;;5114996;28;19919;-75
2022/02/06 11:34:55;;;;;;;;;;;6.00;99.90;;;;;;5111734;28;19916;-76
2022/02/06 11:45:33;;;;;;;;;;;6.10;99.90;;;;;;5112514;28;19916;-75
2022/02/06 11:48:04;;;;;;;;;;;6.10;99.90;;;;;;5096876;28;20230;-75
2022/02/06 11:50:31;;;;;;;;;;;6.20;99.90;;;;;;5112816;27;19923;-75
2022/02/06 11:52:57;;;;;;;;;;;6.20;99.90;;;;;;5110736;28;19919;-75
2022/02/06 11:55:32;;;;;;;;;;;6.30;99.90;;;;;;5106938;27;19916;-75
2022/02/06 11:58:22;;;;;;;;;;;6.40;99.90;;;;;;5109055;27;19919;-75
2022/02/06 12:01:06;;;;;;;;;;;6.40;99.90;;;;;;5086677;28;19915;-76
2022/02/06 12:03:50;;;;;;;;;;;6.50;99.90;;;;;;5110457;28;20226;-76
2022/02/06 12:06:16;;;;;;;;;;;6.50;99.90;;;;;;5112655;27;20265;-76
2022/02/06 12:08:57;;;;;;;;;;;6.60;99.90;;;;;;5092267;28;20402;-74
2022/02/06 12:11:23;;;;;;;;;;;6.60;99.90;;;;;;5081686;28;20310;-76
2022/02/06 12:14:06;;;;;;;;;;;6.70;99.90;;;;;;5064685;28;19938;-75
2022/02/06 12:16:39;;;;;;;;;;;6.80;99.90;;;;;;5090234;28;19916;-74
2022/02/06 12:19:37;;;;;;;;;;;6.80;99.90;;;;;;5086422;28;19916;-74
2022/02/06 12:22:21;;;;;;;;;;;6.90;99.90;;;;;;4975659;28;19918;-75
2022/02/06 12:24:48;;;;;;;;;;;7.00;99.90;;;;;;4982959;28;19986;-74
2022/02/06 12:27:23;;;;;;;;;;;7.00;99.90;;;;;;4973432;28;19985;-75
2022/02/06 12:29:50;;;;;;;;;;;7.00;99.90;;;;;;4972302;28;19921;-74
2022/02/06 12:32:32;;;;;;;;;;;7.10;99.90;;;;;;4976759;28;19925;-74
2022/02/06 12:37:51;;;;;;;;;;;7.10;99.90;;;;;;4952298;28;19934;-75
2022/02/06 12:40:17;;;;;;;;;;;7.20;99.90;;;;;;4977211;28;20041;-74
2022/02/06 12:42:44;;;;;;;;;;;7.20;99.90;;;;;;4984751;28;20042;-75
2022/02/06 12:45:20;;;;;;;;;;;7.30;99.90;;;;;;4972611;28;19918;-74
2022/02/06 12:47:46;;;;;;;;;;;7.30;99.90;;;;;;4975639;28;19950;-75
2022/02/06 12:50:14;;;;;;;;;;;7.40;99.90;;;;;;4974450;28;19922;-75
2022/02/06 12:52:39;;;;;;;;;;;7.50;99.90;;;;;;4986145;28;19924;-73
2022/02/06 12:55:05;;;;;;;;;;;7.50;99.90;;;;;;4980228;28;19918;-74
2022/02/06 12:57:40;;;;;;;;;;;7.50;99.90;;;;;;5011639;28;20343;-75
2022/02/06 13:00:06;;;;;;;;;;;7.60;99.90;;;;;;5089400;28;19995;-74
2022/02/06 13:02:35;;;;;;;;;;;7.60;99.90;;;;;;5071719;28;20312;-74
2022/02/06 13:05:02;;;;;;;;;;;7.60;99.90;;;;;;5068699;28;19920;-73
2022/02/06 13:07:30;;;;;;;;;;;7.70;99.90;;;;;;5086137;28;19968;-73
2022/02/06 13:10:03;;;;;;;;;;;7.60;99.90;;;;;;5098976;27;19924;-74
2022/02/06 13:12:36;;;;;;;;;;;7.70;99.90;;;;;;5101266;28;19916;-73
2022/02/06 13:17:58;;;;;;;;;;;7.70;99.90;;;;;;5093537;28;19912;-74
2022/02/06 13:23:22;;;;;;;;;;;7.90;99.90;;;;;;5094956;28;19919;-74
2022/02/06 13:33:31;;;;;;;;;;;7.90;99.90;;;;;;5106309;28;19968;-73
2022/02/06 13:36:12;;;;;;;;;;;7.90;99.90;;;;;;5105762;28;19916;-74
2022/02/06 13:38:38;;;;;;;;;;;7.90;99.90;;;;;;5107007;28;19969;-74
2022/02/06 13:41:11;;;;;;;;;;;8.00;99.90;;;;;;5099580;28;20230;-74
2022/02/06 13:43:41;;;;;;;;;;;8.00;99.90;;;;;;5109519;28;20369;-73
2022/02/06 13:46:13;;;;;;;;;;;8.00;99.90;;;;;;5105985;28;19916;-73
2022/02/06 13:48:39;;;;;;;;;;;8.00;99.90;;;;;;5109323;28;20283;-73
2022/02/06 13:51:07;;;;;;;;;;;8.00;99.90;;;;;;5107186;28;20003;-74
2022/02/06 13:53:35;;;;;;;;;;;8.10;99.90;;;;;;5105418;28;19922;-74
2022/02/06 13:56:03;;;;;;;;;;;8.20;99.90;;;;;;5106399;28;20140;-74
2022/02/06 13:58:30;;;;;;;;;;;8.20;99.90;;;;;;5101886;28;19920;-74
2022/02/06 14:00:57;;;;;;;;;;;8.20;99.90;;;;;;5107058;28;19912;-73
2022/02/06 14:03:23;;;;;;;;;;;8.30;99.90;;;;;;5107405;28;19927;-74
2022/02/06 14:05:50;;;;;;;;;;;8.40;99.90;;;;;;5109103;28;19920;-73
2022/02/06 14:08:18;;;;;;;;;;;8.50;99.90;;;;;;5107939;28;19923;-74
2022/02/06 14:10:59;;;;;;;;;;;8.60;99.90;;;;;;5107691;28;21156;-74
2022/02/06 14:13:26;;;;;;;;;;;8.60;99.90;;;;;;5108832;28;19920;-73
2022/02/06 14:16:05;;;;;;;;;;;8.40;99.90;;;;;;5103450;28;20012;-74
2022/02/06 14:18:31;;;;;;;;;;;8.20;99.90;;;;;;5107200;28;19912;-74
2022/02/06 14:20:57;;;;;;;;;;;8.10;99.90;;;;;;5104629;28;19916;-74
2022/02/06 14:23:23;;;;;;;;;;;8.20;99.90;;;;;;5107775;28;19916;-73
2022/02/06 14:25:48;;;;;;;;;;;8.30;99.90;;;;;;5099821;28;19926;-74
2022/02/06 14:28:23;;;;;;;;;;;8.30;99.90;;;;;;5110901;28;19923;-74
2022/02/06 14:30:49;;;;;;;;;;;8.10;99.90;;;;;;5108252;28;19924;-74
2022/02/06 14:33:17;;;;;;;;;;;8.10;99.90;;;;;;5097519;28;19922;-74
2022/02/06 14:35:44;;;;;;;;;;;8.00;99.90;;;;;;5103153;28;19920;-73
2022/02/06 14:38:15;;;;;;;;;;;7.90;99.90;;;;;;5105977;28;19922;-74
2022/02/06 14:43:39;;;;;;;;;;;7.90;99.90;;;;;;5091510;28;19922;-74
2022/02/06 14:46:06;;;;;;;;;;;7.90;99.90;;;;;;5106830;28;19923;-73
2022/02/06 14:48:32;;;;;;;;;;;8.00;99.90;;;;;;5104581;28;19916;-73
2022/02/06 14:50:58;;;;;;;;;;;8.00;99.90;;;;;;5109858;28;19926;-74
2022/02/06 14:53:24;;;;;;;;;;;8.10;99.90;;;;;;5107986;28;20006;-73
2022/02/06 14:55:52;;;;;;;;;;;8.10;99.90;;;;;;5099380;28;19920;-73
2022/02/06 14:58:18;;;;;;;;;;;8.20;99.90;;;;;;5106762;28;19969;-73
2022/02/06 15:00:44;;;;;;;;;;;8.10;99.90;;;;;;5108539;28;19916;-74
2022/02/06 15:03:11;;;;;;;;;;;8.10;99.90;;;;;;5108551;28;19922;-73
2022/02/06 15:05:37;;;;;;;;;;;8.10;99.90;;;;;;5109117;28;19915;-73
2022/02/06 15:08:03;;;;;;;;;;;8.10;99.90;;;;;;5105668;28;19919;-74
2022/02/06 15:10:30;;;;;;;;;;;8.00;99.90;;;;;;5109719;28;20280;-73
2022/02/06 15:12:57;;;;;;;;;;;7.90;99.90;;;;;;5109159;28;19920;-74
2022/02/06 15:15:24;;;;;;;;;;;7.90;99.90;;;;;;5108295;28;20014;-73
2022/02/06 15:17:52;;;;;;;;;;;7.80;99.90;;;;;;5105254;28;20372;-73
2022/02/06 15:20:17;;;;;;;;;;;7.80;99.90;;;;;;5106669;28;19920;-72
2022/02/06 15:22:43;;;;;;;;;;;7.70;99.90;;;;;;5107050;28;19920;-74
2022/02/06 15:25:09;;;;;;;;;;;7.40;99.90;;;;;;5105384;28;19916;-72
2022/02/06 15:27:34;;;;;;;;;;;7.20;99.90;;;;;;5107983;28;19931;-73
2022/02/06 15:30:00;;;;;;;;;;;7.00;99.90;;;;;;5103444;28;20369;-73
2022/02/06 15:32:26;;;;;;;;;;;7.00;99.90;;;;;;5100292;28;20211;-73
2022/02/06 15:34:52;;;;;;;;;;;6.90;99.90;;;;;;5108194;28;19966;-71
2022/02/06 15:37:18;;;;;;;;;;;6.70;99.90;;;;;;5105267;28;19972;-74
2022/02/06 15:39:44;;;;;;;;;;;5.80;99.90;;;;;;5106170;28;19915;-71
2022/02/06 15:42:16;;;;;;;;;;;4.80;99.90;;;;;;5092020;28;19919;-73
2022/02/06 15:44:42;;;;;;;;;;;4.60;99.90;;;;;;5103876;28;20200;-74
2022/02/06 15:47:08;;;;;;;;;;;4.50;99.90;;;;;;5106591;28;19916;-74
2022/02/06 15:49:34;;;;;;;;;;;4.50;99.90;;;;;;5104867;28;19943;-74
2022/02/06 15:52:00;;;;;;;;;;;4.50;99.90;;;;;;5097457;28;19943;-75
2022/02/06 15:54:26;;;;;;;;;;;4.60;99.90;;;;;;5110245;28;19991;-74
2022/02/06 15:56:52;;;;;;;;;;;4.70;99.90;;;;;;5108069;28;19916;-73
2022/02/06 15:59:18;;;;;;;;;;;4.70;99.90;;;;;;5110616;28;19915;-73
2022/02/06 16:01:44;;;;;;;;;;;4.80;99.90;;;;;;5109364;28;20015;-74
2022/02/06 16:04:10;;;;;;;;;;;4.80;99.90;;;;;;5109091;28;20002;-74
2022/02/06 16:06:36;;;;;;;;;;;4.90;99.90;;;;;;5110333;27;20036;-74
2022/02/06 16:09:03;;;;;;;;;;;4.90;99.90;;;;;;5112173;28;19927;-74
2022/02/06 16:11:29;;;;;;;;;;;5.00;99.90;;;;;;5111018;28;19922;-73
2022/02/06 16:13:55;;;;;;;;;;;5.00;99.90;;;;;;5111218;28;19915;-74
2022/02/06 16:16:26;;;;;;;;;;;5.10;99.90;;;;;;5111279;28;20231;-74
2022/02/06 16:18:53;;;;;;;;;;;5.20;99.90;;;;;;5111991;28;19922;-74
2022/02/06 16:21:18;;;;;;;;;;;5.20;99.90;;;;;;5109715;28;19919;-73
2022/02/06 16:23:44;;;;;;;;;;;5.30;99.90;;;;;;5109728;28;19916;-74
2022/02/06 16:26:09;;;;;;;;;;;5.20;99.90;;;;;;5110712;28;19923;-74
2022/02/06 16:28:35;;;;;;;;;;;5.30;99.90;;;;;;5112068;28;19920;-74
2022/02/06 16:31:00;;;;;;;;;;;5.50;99.90;;;;;;5112195;28;19919;-74
2022/02/06 16:33:26;;;;;;;;;;;5.70;99.90;;;;;;5111580;28;20018;-74
2022/02/06 16:35:53;;;;;;;;;;;5.90;99.90;;;;;;5111427;28;20040;-74
2022/02/06 16:38:18;;;;;;;;;;;6.00;99.90;;;;;;5111135;28;19920;-74
2022/02/06 16:40:44;;;;;;;;;;;6.10;99.90;;;;;;5103068;28;20428;-75
2022/02/06 16:43:09;;;;;;;;;;;6.00;99.90;;;;;;5109845;28;19938;-72
2022/02/06 16:45:35;;;;;;;;;;;5.90;99.90;;;;;;5108203;28;19920;-73
2022/02/06 16:48:00;;;;;;;;;;;5.90;99.90;;;;;;5111395;28;19962;-73
2022/02/06 16:50:26;;;;;;;;;;;5.90;99.90;;;;;;5104051;28;20606;-74
2022/02/06 16:52:52;;;;;;;;;;;5.90;99.90;;;;;;5108746;28;19964;-73
2022/02/06 16:55:18;;;;;;;;;;;5.80;99.90;;;;;;5111831;28;19916;-74
2022/02/06 16:57:44;;;;;;;;;;;5.70;99.90;;;;;;5109488;27;19916;-74
2022/02/06 17:00:11;;;;;;;;;;;5.70;99.90;;;;;;5104287;28;20358;-74
2022/02/06 17:02:37;;;;;;;;;;;5.60;99.90;;;;;;5105185;28;19912;-74
2022/02/06 17:05:03;;;;;;;;;;;5.70;99.90;;;;;;5106141;28;19923;-74
2022/02/06 17:07:28;;;;;;;;;;;5.60;99.90;;;;;;5106412;27;20012;-74
2022/02/06 17:09:54;;;;;;;;;;;5.60;99.90;;;;;;5103579;28;20273;-74
2022/02/06 17:12:19;;;;;;;;;;;5.60;99.90;;;;;;5104577;28;20238;-73
2022/02/06 17:14:45;;;;;;;;;;;5.70;99.90;;;;;;5098898;28;19916;-75
2022/02/06 17:17:11;;;;;;;;;;;5.70;99.90;;;;;;5093215;28;19923;-74
2022/02/06 17:19:36;;;;;;;;;;;5.60;99.90;;;;;;5098246;28;20311;-75
2022/02/06 17:22:02;;;;;;;;;;;5.10;99.90;;;;;;5094328;28;19920;-74
2022/02/06 17:24:27;;;;;;;;;;;4.70;99.90;;;;;;5102229;28;19951;-75